Flugplatz Hamburg (EDDH)

Hier findest Du alle Informationen zum Flugplatz Hamburg (EDDH).

Informationen für Piloten zum Flugplatz Hamburg

Hier findest Du alle relevanten Informationen, die Du als Pilot benötigst, um Hamburg anzufliegen.

Flugplatz: Hamburg ICAO-Code: EDDH
Frequenz Turm: 123,250 Mhz GAFOR Gebiet: 3
Frequenz Ground: 121,800 Mhz Mogas: nein
Platzrunde: N 0 ft Landegebühr: 47,3 €
Platzhöhe: - Sunrise: 06:43 Uhr UTC
Pisten: 05/23 - 2.952 m x 45 m, ASPH Sunset: 15:25 Uhr UTC

Flugwetter am Flugplatz Hamburg

Die METAR Information stammen aus EDDH.

METAR Code:
2019/11/15 13:20
EDDH 151320Z 08011KT 7000 BKN009 06/04 Q1005 NOSIG

Temperatur: 5,8 °C Niederschlag: - Wind: 11,1 kt
Temperatur (min.): 5,0 °C Luftdruck: 1005 hPa Windrichtung: 70 °
Temperatur (max.): 6,7 °C Luftfeuchtigkeit: 93 % Bewölkung: 6/8

Flugschulen am Flugplatz Hamburg

Am Flugplatz Hamburg gibt es leider keine Flugschule.

Benachbarte Flugplätze und Flugschulen

Es gibt 9 weitere Flugplätze in einem Umkreis von 50 km um den Flugplatz Hamburg.

Jetzt anmelden

Passwort vergessen

Anzeige: Skymap
Umfrage Archiv

Lasst Ihr Euch bei Überlandflügen von FIS begleiten?

Ja, immer!
54.2 %
Ja, unregelmäßig!
29.2 %
Ja, aber nur selten!
16.7 %
Nein, nie!
0 %
Stimmen: 24 | Diskussion
Anzeige: Roland Aircraft
Statistik Alle Mitglieder

Aktuell sind 40 Besucher online, davon 1 Mitglied und 39 Gäste.


Mitglieder online:
r1 

Anzeige: VFR Sprechfunk Simulator


Anzeige: Pocket FMS